sensor_id;sensor_type;location;lat;lon;timestamp;P1;durP1;ratioP1;P2;durP2;ratioP2
35257;SDS011;21385;50.878;8.050;2022-09-01T00:00:43;1.65;;;1.55;;
35257;SDS011;21385;50.878;8.050;2022-09-01T00:03:18;1.25;;;1.15;;
35257;SDS011;21385;50.878;8.050;2022-09-01T00:05:47;1.58;;;1.45;;
35257;SDS011;21385;50.878;8.050;2022-09-01T00:08:18;3.15;;;1.35;;
35257;SDS011;21385;50.878;8.050;2022-09-01T00:10:44;2.92;;;1.65;;
35257;SDS011;21385;50.878;8.050;2022-09-01T00:13:10;3.30;;;1.63;;
35257;SDS011;21385;50.878;8.050;2022-09-01T00:15:36;1.77;;;1.48;;
35257;SDS011;21385;50.878;8.050;2022-09-01T00:18:01;2.85;;;1.50;;
35257;SDS011;21385;50.878;8.050;2022-09-01T00:20:27;1.92;;;1.60;;
35257;SDS011;21385;50.878;8.050;2022-09-01T00:22:53;2.65;;;1.63;;
35257;SDS011;21385;50.878;8.050;2022-09-01T00:25:19;3.20;;;1.75;;
35257;SDS011;21385;50.878;8.050;2022-09-01T00:27:46;1.92;;;1.70;;
35257;SDS011;21385;50.878;8.050;2022-09-01T00:30:13;2.83;;;1.70;;
35257;SDS011;21385;50.878;8.050;2022-09-01T00:32:38;3.90;;;1.50;;
35257;SDS011;21385;50.878;8.050;2022-09-01T00:35:05;2.72;;;1.58;;
35257;SDS011;21385;50.878;8.050;2022-09-01T00:37:32;4.00;;;1.70;;
35257;SDS011;21385;50.878;8.050;2022-09-01T00:39:58;2.78;;;1.75;;
35257;SDS011;21385;50.878;8.050;2022-09-01T00:42:24;3.85;;;1.83;;
35257;SDS011;21385;50.878;8.050;2022-09-01T00:44:49;1.90;;;1.48;;
35257;SDS011;21385;50.878;8.050;2022-09-01T00:47:15;1.92;;;1.73;;
35257;SDS011;21385;50.878;8.050;2022-09-01T00:49:42;2.53;;;1.70;;
35257;SDS011;21385;50.878;8.050;2022-09-01T00:54:40;2.33;;;1.80;;
35257;SDS011;21385;50.878;8.050;2022-09-01T00:57:09;6.57;;;2.47;;
35257;SDS011;21385;50.878;8.050;2022-09-01T00:59:38;2.42;;;1.98;;
35257;SDS011;21385;50.878;8.050;2022-09-01T01:02:11;2.15;;;1.95;;
35257;SDS011;21385;50.878;8.050;2022-09-01T01:04:37;2.47;;;2.28;;
35257;SDS011;21385;50.878;8.050;2022-09-01T01:07:07;6.25;;;2.08;;
35257;SDS011;21385;50.878;8.050;2022-09-01T01:09:35;5.63;;;2.47;;
35257;SDS011;21385;50.878;8.050;2022-09-01T01:12:05;2.53;;;1.92;;
35257;SDS011;21385;50.878;8.050;2022-09-01T01:14:35;2.50;;;1.90;;
35257;SDS011;21385;50.878;8.050;2022-09-01T01:17:03;3.03;;;2.33;;
35257;SDS011;21385;50.878;8.050;2022-09-01T01:19:43;4.13;;;2.10;;
35257;SDS011;21385;50.878;8.050;2022-09-01T01:25:40;2.45;;;1.98;;
35257;SDS011;21385;50.878;8.050;2022-09-01T01:28:19;3.22;;;2.10;;
35257;SDS011;21385;50.878;8.050;2022-09-01T01:30:50;4.10;;;2.20;;
35257;SDS011;21385;50.878;8.050;2022-09-01T01:33:22;2.95;;;2.00;;
35257;SDS011;21385;50.878;8.050;2022-09-01T01:35:50;3.85;;;2.08;;
35257;SDS011;21385;50.878;8.050;2022-09-01T01:38:18;3.13;;;1.95;;
35257;SDS011;21385;50.878;8.050;2022-09-01T01:40:46;3.38;;;1.83;;
35257;SDS011;21385;50.878;8.050;2022-09-01T01:43:12;3.90;;;1.90;;
35257;SDS011;21385;50.878;8.050;2022-09-01T01:45:48;2.03;;;1.65;;
35257;SDS011;21385;50.878;8.050;2022-09-01T01:48:16;5.85;;;2.15;;
35257;SDS011;21385;50.878;8.050;2022-09-01T01:50:47;2.00;;;1.70;;
35257;SDS011;21385;50.878;8.050;2022-09-01T01:53:13;3.95;;;2.10;;
35257;SDS011;21385;50.878;8.050;2022-09-01T01:55:41;3.40;;;2.10;;
35257;SDS011;21385;50.878;8.050;2022-09-01T01:58:08;2.90;;;2.20;;
35257;SDS011;21385;50.878;8.050;2022-09-01T02:00:36;3.75;;;2.40;;
35257;SDS011;21385;50.878;8.050;2022-09-01T02:03:02;7.10;;;3.42;;
35257;SDS011;21385;50.878;8.050;2022-09-01T02:05:30;11.70;;;5.55;;
35257;SDS011;21385;50.878;8.050;2022-09-01T02:08:16;14.55;;;6.75;;
35257;SDS011;21385;50.878;8.050;2022-09-01T02:10:45;23.67;;;7.78;;
35257;SDS011;21385;50.878;8.050;2022-09-01T02:13:13;22.20;;;10.32;;
35257;SDS011;21385;50.878;8.050;2022-09-01T02:15:43;6.78;;;4.35;;
35257;SDS011;21385;50.878;8.050;2022-09-01T02:18:16;7.68;;;4.95;;
35257;SDS011;21385;50.878;8.050;2022-09-01T02:20:46;12.70;;;5.03;;
35257;SDS011;21385;50.878;8.050;2022-09-01T02:23:14;8.55;;;4.85;;
35257;SDS011;21385;50.878;8.050;2022-09-01T02:25:47;11.13;;;5.63;;
35257;SDS011;21385;50.878;8.050;2022-09-01T02:28:15;16.52;;;6.68;;
35257;SDS011;21385;50.878;8.050;2022-09-01T02:30:42;14.55;;;7.95;;
35257;SDS011;21385;50.878;8.050;2022-09-01T02:33:09;15.20;;;7.57;;
35257;SDS011;21385;50.878;8.050;2022-09-01T02:35:37;21.63;;;7.95;;
35257;SDS011;21385;50.878;8.050;2022-09-01T02:38:03;19.02;;;8.82;;
35257;SDS011;21385;50.878;8.050;2022-09-01T02:40:30;19.38;;;9.82;;
35257;SDS011;21385;50.878;8.050;2022-09-01T02:42:57;22.80;;;9.68;;
35257;SDS011;21385;50.878;8.050;2022-09-01T02:45:24;18.85;;;9.98;;
35257;SDS011;21385;50.878;8.050;2022-09-01T02:47:51;21.05;;;9.05;;
35257;SDS011;21385;50.878;8.050;2022-09-01T02:50:18;18.30;;;10.30;;
35257;SDS011;21385;50.878;8.050;2022-09-01T02:52:46;15.85;;;8.32;;
35257;SDS011;21385;50.878;8.050;2022-09-01T02:55:16;15.93;;;7.50;;
35257;SDS011;21385;50.878;8.050;2022-09-01T02:57:45;11.60;;;6.40;;
35257;SDS011;21385;50.878;8.050;2022-09-01T03:00:13;12.23;;;6.78;;
35257;SDS011;21385;50.878;8.050;2022-09-01T03:02:49;9.05;;;5.82;;
35257;SDS011;21385;50.878;8.050;2022-09-01T03:05:17;10.18;;;5.55;;
35257;SDS011;21385;50.878;8.050;2022-09-01T03:07:49;6.97;;;5.00;;
35257;SDS011;21385;50.878;8.050;2022-09-01T03:10:20;10.38;;;4.57;;
35257;SDS011;21385;50.878;8.050;2022-09-01T03:12:56;7.65;;;3.75;;
35257;SDS011;21385;50.878;8.050;2022-09-01T03:15:24;6.60;;;4.00;;
35257;SDS011;21385;50.878;8.050;2022-09-01T03:17:51;7.28;;;4.97;;
35257;SDS011;21385;50.878;8.050;2022-09-01T03:20:17;7.57;;;4.13;;
35257;SDS011;21385;50.878;8.050;2022-09-01T03:22:44;7.85;;;4.15;;
35257;SDS011;21385;50.878;8.050;2022-09-01T03:25:11;9.35;;;4.30;;
35257;SDS011;21385;50.878;8.050;2022-09-01T03:27:37;6.35;;;4.25;;
35257;SDS011;21385;50.878;8.050;2022-09-01T03:30:03;8.68;;;5.00;;
35257;SDS011;21385;50.878;8.050;2022-09-01T03:32:29;8.25;;;4.85;;
35257;SDS011;21385;50.878;8.050;2022-09-01T03:34:54;6.70;;;4.32;;
35257;SDS011;21385;50.878;8.050;2022-09-01T03:37:21;8.50;;;4.85;;
35257;SDS011;21385;50.878;8.050;2022-09-01T03:39:47;6.30;;;3.72;;
35257;SDS011;21385;50.878;8.050;2022-09-01T03:42:13;5.70;;;4.25;;
35257;SDS011;21385;50.878;8.050;2022-09-01T03:44:49;9.98;;;4.97;;
35257;SDS011;21385;50.878;8.050;2022-09-01T03:47:17;7.60;;;3.83;;
35257;SDS011;21385;50.878;8.050;2022-09-01T03:49:45;8.20;;;4.57;;
35257;SDS011;21385;50.878;8.050;2022-09-01T03:52:13;8.23;;;4.88;;
35257;SDS011;21385;50.878;8.050;2022-09-01T03:54:39;8.63;;;4.47;;
35257;SDS011;21385;50.878;8.050;2022-09-01T03:57:05;9.13;;;4.80;;
35257;SDS011;21385;50.878;8.050;2022-09-01T03:59:33;7.80;;;4.35;;
35257;SDS011;21385;50.878;8.050;2022-09-01T04:01:59;6.28;;;4.40;;
35257;SDS011;21385;50.878;8.050;2022-09-01T04:04:26;4.93;;;4.22;;
35257;SDS011;21385;50.878;8.050;2022-09-01T04:06:55;7.57;;;3.80;;
35257;SDS011;21385;50.878;8.050;2022-09-01T04:09:21;6.60;;;4.18;;
35257;SDS011;21385;50.878;8.050;2022-09-01T04:11:46;7.07;;;4.25;;
35257;SDS011;21385;50.878;8.050;2022-09-01T04:14:12;6.35;;;4.07;;
35257;SDS011;21385;50.878;8.050;2022-09-01T04:16:39;5.38;;;3.40;;
35257;SDS011;21385;50.878;8.050;2022-09-01T04:19:23;6.70;;;4.22;;
35257;SDS011;21385;50.878;8.050;2022-09-01T04:21:51;4.95;;;3.45;;
35257;SDS011;21385;50.878;8.050;2022-09-01T04:24:19;5.82;;;3.60;;
35257;SDS011;21385;50.878;8.050;2022-09-01T04:26:47;6.15;;;3.60;;
35257;SDS011;21385;50.878;8.050;2022-09-01T04:29:14;6.07;;;3.45;;
35257;SDS011;21385;50.878;8.050;2022-09-01T04:31:42;7.10;;;3.78;;
35257;SDS011;21385;50.878;8.050;2022-09-01T04:34:09;5.00;;;3.58;;
35257;SDS011;21385;50.878;8.050;2022-09-01T04:36:38;7.20;;;3.80;;
35257;SDS011;21385;50.878;8.050;2022-09-01T04:39:07;8.23;;;3.65;;
35257;SDS011;21385;50.878;8.050;2022-09-01T04:41:37;4.93;;;3.90;;
35257;SDS011;21385;50.878;8.050;2022-09-01T04:44:08;6.95;;;3.78;;
35257;SDS011;21385;50.878;8.050;2022-09-01T04:46:35;6.45;;;3.42;;
35257;SDS011;21385;50.878;8.050;2022-09-01T04:49:06;6.93;;;4.00;;
35257;SDS011;21385;50.878;8.050;2022-09-01T04:51:37;8.32;;;4.63;;
35257;SDS011;21385;50.878;8.050;2022-09-01T04:54:04;6.53;;;4.70;;
35257;SDS011;21385;50.878;8.050;2022-09-01T04:56:33;8.25;;;4.88;;
35257;SDS011;21385;50.878;8.050;2022-09-01T04:58:59;7.05;;;4.95;;
35257;SDS011;21385;50.878;8.050;2022-09-01T05:01:26;7.90;;;4.75;;
35257;SDS011;21385;50.878;8.050;2022-09-01T05:03:52;8.73;;;5.03;;
35257;SDS011;21385;50.878;8.050;2022-09-01T05:06:24;9.77;;;5.60;;
35257;SDS011;21385;50.878;8.050;2022-09-01T05:08:49;7.78;;;5.47;;
35257;SDS011;21385;50.878;8.050;2022-09-01T05:11:16;11.48;;;5.90;;
35257;SDS011;21385;50.878;8.050;2022-09-01T05:13:42;13.40;;;6.68;;
35257;SDS011;21385;50.878;8.050;2022-09-01T05:16:10;17.15;;;9.23;;
35257;SDS011;21385;50.878;8.050;2022-09-01T05:18:38;20.33;;;9.73;;
35257;SDS011;21385;50.878;8.050;2022-09-01T05:21:06;12.38;;;7.15;;
35257;SDS011;21385;50.878;8.050;2022-09-01T05:23:34;15.70;;;9.55;;
35257;SDS011;21385;50.878;8.050;2022-09-01T05:26:02;19.75;;;9.98;;
35257;SDS011;21385;50.878;8.050;2022-09-01T05:28:38;15.55;;;9.23;;
35257;SDS011;21385;50.878;8.050;2022-09-01T05:31:05;26.30;;;11.88;;
35257;SDS011;21385;50.878;8.050;2022-09-01T05:33:31;19.55;;;8.98;;
35257;SDS011;21385;50.878;8.050;2022-09-01T05:36:01;20.33;;;9.80;;
35257;SDS011;21385;50.878;8.050;2022-09-01T05:38:28;23.08;;;9.02;;
35257;SDS011;21385;50.878;8.050;2022-09-01T05:41:02;27.17;;;10.70;;
35257;SDS011;21385;50.878;8.050;2022-09-01T05:43:33;19.95;;;10.43;;
35257;SDS011;21385;50.878;8.050;2022-09-01T05:46:00;23.38;;;11.60;;
35257;SDS011;21385;50.878;8.050;2022-09-01T05:48:28;26.90;;;11.13;;
35257;SDS011;21385;50.878;8.050;2022-09-01T05:50:55;20.15;;;9.98;;
35257;SDS011;21385;50.878;8.050;2022-09-01T05:53:25;19.55;;;9.38;;
35257;SDS011;21385;50.878;8.050;2022-09-01T05:55:53;15.52;;;8.15;;
35257;SDS011;21385;50.878;8.050;2022-09-01T05:58:21;12.23;;;6.53;;
35257;SDS011;21385;50.878;8.050;2022-09-01T06:00:51;13.07;;;6.57;;
35257;SDS011;21385;50.878;8.050;2022-09-01T06:03:19;12.68;;;6.07;;
35257;SDS011;21385;50.878;8.050;2022-09-01T06:05:46;9.93;;;5.60;;
35257;SDS011;21385;50.878;8.050;2022-09-01T06:08:16;11.60;;;4.80;;
35257;SDS011;21385;50.878;8.050;2022-09-01T06:10:43;9.02;;;5.30;;
35257;SDS011;21385;50.878;8.050;2022-09-01T06:13:09;7.13;;;4.35;;
35257;SDS011;21385;50.878;8.050;2022-09-01T06:15:38;8.43;;;4.78;;
35257;SDS011;21385;50.878;8.050;2022-09-01T06:18:04;7.10;;;4.30;;
35257;SDS011;21385;50.878;8.050;2022-09-01T06:20:31;9.52;;;5.18;;
35257;SDS011;21385;50.878;8.050;2022-09-01T06:22:57;8.82;;;5.30;;
35257;SDS011;21385;50.878;8.050;2022-09-01T06:25:23;10.02;;;6.15;;
35257;SDS011;21385;50.878;8.050;2022-09-01T06:27:54;11.85;;;5.55;;
35257;SDS011;21385;50.878;8.050;2022-09-01T06:30:20;10.15;;;5.22;;
35257;SDS011;21385;50.878;8.050;2022-09-01T06:32:46;12.40;;;5.55;;
35257;SDS011;21385;50.878;8.050;2022-09-01T06:35:13;13.45;;;6.93;;
35257;SDS011;21385;50.878;8.050;2022-09-01T06:37:41;11.13;;;6.15;;
35257;SDS011;21385;50.878;8.050;2022-09-01T06:40:08;10.27;;;6.20;;
35257;SDS011;21385;50.878;8.050;2022-09-01T06:42:41;11.30;;;6.28;;
35257;SDS011;21385;50.878;8.050;2022-09-01T06:45:09;13.82;;;6.70;;
35257;SDS011;21385;50.878;8.050;2022-09-01T06:47:35;14.48;;;6.95;;
35257;SDS011;21385;50.878;8.050;2022-09-01T06:50:02;13.13;;;5.65;;
35257;SDS011;21385;50.878;8.050;2022-09-01T06:52:28;9.82;;;5.85;;
35257;SDS011;21385;50.878;8.050;2022-09-01T06:54:54;11.50;;;6.07;;
35257;SDS011;21385;50.878;8.050;2022-09-01T06:57:20;9.98;;;5.90;;
35257;SDS011;21385;50.878;8.050;2022-09-01T06:59:46;17.10;;;5.97;;
35257;SDS011;21385;50.878;8.050;2022-09-01T07:02:14;14.35;;;5.72;;
35257;SDS011;21385;50.878;8.050;2022-09-01T07:04:43;8.35;;;5.00;;
35257;SDS011;21385;50.878;8.050;2022-09-01T07:07:09;11.98;;;6.03;;
35257;SDS011;21385;50.878;8.050;2022-09-01T07:09:36;6.57;;;4.32;;
35257;SDS011;21385;50.878;8.050;2022-09-01T07:12:04;8.57;;;4.05;;
35257;SDS011;21385;50.878;8.050;2022-09-01T07:14:30;7.57;;;3.63;;
35257;SDS011;21385;50.878;8.050;2022-09-01T07:16:56;5.07;;;2.75;;
35257;SDS011;21385;50.878;8.050;2022-09-01T07:19:22;6.85;;;2.67;;
35257;SDS011;21385;50.878;8.050;2022-09-01T07:21:50;5.38;;;2.30;;
35257;SDS011;21385;50.878;8.050;2022-09-01T07:24:16;7.35;;;1.83;;
35257;SDS011;21385;50.878;8.050;2022-09-01T07:26:44;2.25;;;1.40;;
35257;SDS011;21385;50.878;8.050;2022-09-01T07:29:15;2.28;;;1.23;;
35257;SDS011;21385;50.878;8.050;2022-09-01T07:31:42;2.92;;;1.58;;
35257;SDS011;21385;50.878;8.050;2022-09-01T07:34:09;2.67;;;1.70;;
35257;SDS011;21385;50.878;8.050;2022-09-01T07:36:41;2.58;;;1.05;;
35257;SDS011;21385;50.878;8.050;2022-09-01T07:39:08;3.67;;;1.30;;
35257;SDS011;21385;50.878;8.050;2022-09-01T07:41:34;1.50;;;0.85;;
35257;SDS011;21385;50.878;8.050;2022-09-01T07:44:03;1.73;;;1.20;;
35257;SDS011;21385;50.878;8.050;2022-09-01T07:46:32;6.97;;;1.08;;
35257;SDS011;21385;50.878;8.050;2022-09-01T07:48:58;4.47;;;0.75;;
35257;SDS011;21385;50.878;8.050;2022-09-01T07:51:25;1.67;;;0.90;;
35257;SDS011;21385;50.878;8.050;2022-09-01T07:53:52;2.90;;;1.10;;
35257;SDS011;21385;50.878;8.050;2022-09-01T07:56:20;1.42;;;1.00;;
35257;SDS011;21385;50.878;8.050;2022-09-01T07:58:48;2.80;;;0.98;;
35257;SDS011;21385;50.878;8.050;2022-09-01T08:01:16;1.95;;;1.13;;
35257;SDS011;21385;50.878;8.050;2022-09-01T08:03:48;2.58;;;0.82;;
35257;SDS011;21385;50.878;8.050;2022-09-01T08:06:16;1.42;;;0.93;;
35257;SDS011;21385;50.878;8.050;2022-09-01T08:08:44;2.85;;;1.10;;
35257;SDS011;21385;50.878;8.050;2022-09-01T08:11:22;1.63;;;1.05;;
35257;SDS011;21385;50.878;8.050;2022-09-01T08:13:51;1.02;;;0.90;;
35257;SDS011;21385;50.878;8.050;2022-09-01T08:16:17;3.78;;;0.90;;
35257;SDS011;21385;50.878;8.050;2022-09-01T08:18:44;3.08;;;1.00;;
35257;SDS011;21385;50.878;8.050;2022-09-01T08:21:12;2.80;;;1.10;;
35257;SDS011;21385;50.878;8.050;2022-09-01T08:23:39;2.10;;;1.08;;
35257;SDS011;21385;50.878;8.050;2022-09-01T08:26:09;4.22;;;0.95;;
35257;SDS011;21385;50.878;8.050;2022-09-01T08:31:07;1.48;;;1.00;;
35257;SDS011;21385;50.878;8.050;2022-09-01T08:36:00;2.08;;;0.93;;
35257;SDS011;21385;50.878;8.050;2022-09-01T08:38:26;2.38;;;1.08;;
35257;SDS011;21385;50.878;8.050;2022-09-01T08:40:53;2.67;;;0.90;;
35257;SDS011;21385;50.878;8.050;2022-09-01T08:46:12;2.75;;;0.93;;
35257;SDS011;21385;50.878;8.050;2022-09-01T08:48:52;4.68;;;1.30;;
35257;SDS011;21385;50.878;8.050;2022-09-01T08:51:36;1.80;;;0.85;;
35257;SDS011;21385;50.878;8.050;2022-09-01T08:56:38;2.25;;;1.27;;
35257;SDS011;21385;50.878;8.050;2022-09-01T08:59:05;2.20;;;1.00;;
35257;SDS011;21385;50.878;8.050;2022-09-01T09:01:42;2.47;;;0.90;;
35257;SDS011;21385;50.878;8.050;2022-09-01T09:09:47;4.15;;;1.58;;
35257;SDS011;21385;50.878;8.050;2022-09-01T09:12:55;1.70;;;1.10;;
35257;SDS011;21385;50.878;8.050;2022-09-01T09:20:40;2.63;;;1.00;;
35257;SDS011;21385;50.878;8.050;2022-09-01T09:23:10;1.75;;;1.00;;
35257;SDS011;21385;50.878;8.050;2022-09-01T09:25:43;1.45;;;0.90;;
35257;SDS011;21385;50.878;8.050;2022-09-01T09:28:09;6.72;;;1.02;;
35257;SDS011;21385;50.878;8.050;2022-09-01T09:30:36;2.03;;;1.08;;
35257;SDS011;21385;50.878;8.050;2022-09-01T09:33:05;1.17;;;0.80;;
35257;SDS011;21385;50.878;8.050;2022-09-01T09:44:05;0.88;;;0.80;;
35257;SDS011;21385;50.878;8.050;2022-09-01T09:46:44;1.40;;;0.90;;
35257;SDS011;21385;50.878;8.050;2022-09-01T09:51:38;1.02;;;0.90;;
35257;SDS011;21385;50.878;8.050;2022-09-01T10:02:40;1.70;;;1.00;;
35257;SDS011;21385;50.878;8.050;2022-09-01T10:07:54;1.13;;;0.73;;
35257;SDS011;21385;50.878;8.050;2022-09-01T10:13:13;1.50;;;1.00;;
35257;SDS011;21385;50.878;8.050;2022-09-01T10:16:18;1.20;;;0.85;;
35257;SDS011;21385;50.878;8.050;2022-09-01T10:18:40;2.95;;;1.10;;
35257;SDS011;21385;50.878;8.050;2022-09-01T10:21:11;1.10;;;1.00;;
35257;SDS011;21385;50.878;8.050;2022-09-01T10:23:42;0.95;;;0.95;;
35257;SDS011;21385;50.878;8.050;2022-09-01T10:26:13;2.60;;;1.30;;
35257;SDS011;21385;50.878;8.050;2022-09-01T10:31:49;1.67;;;1.02;;
35257;SDS011;21385;50.878;8.050;2022-09-01T10:34:17;2.72;;;1.30;;
35257;SDS011;21385;50.878;8.050;2022-09-01T10:36:45;3.42;;;1.15;;
35257;SDS011;21385;50.878;8.050;2022-09-01T10:39:13;1.70;;;1.20;;
35257;SDS011;21385;50.878;8.050;2022-09-01T10:44:17;3.00;;;0.90;;
35257;SDS011;21385;50.878;8.050;2022-09-01T10:46:43;2.60;;;0.98;;
35257;SDS011;21385;50.878;8.050;2022-09-01T10:49:19;2.45;;;1.00;;
35257;SDS011;21385;50.878;8.050;2022-09-01T10:52:05;2.40;;;1.00;;
35257;SDS011;21385;50.878;8.050;2022-09-01T10:59:53;3.28;;;1.08;;
35257;SDS011;21385;50.878;8.050;2022-09-01T11:02:21;3.35;;;1.35;;
35257;SDS011;21385;50.878;8.050;2022-09-01T11:15:39;2.00;;;1.00;;
35257;SDS011;21385;50.878;8.050;2022-09-01T11:18:12;3.20;;;1.23;;
35257;SDS011;21385;50.878;8.050;2022-09-01T11:20:51;2.58;;;1.00;;
35257;SDS011;21385;50.878;8.050;2022-09-01T11:33:27;1.80;;;0.88;;
35257;SDS011;21385;50.878;8.050;2022-09-01T11:41:30;2.45;;;0.90;;
35257;SDS011;21385;50.878;8.050;2022-09-01T11:44:14;1.20;;;1.10;;
35257;SDS011;21385;50.878;8.050;2022-09-01T11:46:51;1.17;;;0.90;;
35257;SDS011;21385;50.878;8.050;2022-09-01T11:49:30;1.10;;;1.00;;
35257;SDS011;21385;50.878;8.050;2022-09-01T11:51:58;1.33;;;1.23;;
35257;SDS011;21385;50.878;8.050;2022-09-01T11:54:27;2.55;;;1.10;;
35257;SDS011;21385;50.878;8.050;2022-09-01T11:56:54;1.98;;;1.30;;
35257;SDS011;21385;50.878;8.050;2022-09-01T11:59:30;5.35;;;1.17;;
35257;SDS011;21385;50.878;8.050;2022-09-01T12:01:57;1.73;;;1.02;;
35257;SDS011;21385;50.878;8.050;2022-09-01T12:04:24;2.60;;;0.98;;
35257;SDS011;21385;50.878;8.050;2022-09-01T12:09:32;1.60;;;1.00;;
35257;SDS011;21385;50.878;8.050;2022-09-01T12:12:01;2.17;;;1.10;;
35257;SDS011;21385;50.878;8.050;2022-09-01T12:14:27;2.78;;;0.98;;
35257;SDS011;21385;50.878;8.050;2022-09-01T12:17:01;3.05;;;1.10;;
35257;SDS011;21385;50.878;8.050;2022-09-01T12:19:33;2.08;;;0.93;;
35257;SDS011;21385;50.878;8.050;2022-09-01T12:22:01;1.92;;;1.20;;
35257;SDS011;21385;50.878;8.050;2022-09-01T12:24:43;1.63;;;1.00;;
35257;SDS011;21385;50.878;8.050;2022-09-01T12:27:11;2.00;;;1.10;;
35257;SDS011;21385;50.878;8.050;2022-09-01T12:29:37;1.20;;;1.10;;
35257;SDS011;21385;50.878;8.050;2022-09-01T12:32:03;3.25;;;0.98;;
35257;SDS011;21385;50.878;8.050;2022-09-01T12:37:08;1.25;;;1.10;;
35257;SDS011;21385;50.878;8.050;2022-09-01T12:39:38;1.15;;;1.00;;
35257;SDS011;21385;50.878;8.050;2022-09-01T12:44:52;1.15;;;1.05;;
35257;SDS011;21385;50.878;8.050;2022-09-01T12:49:58;1.13;;;1.02;;
35257;SDS011;21385;50.878;8.050;2022-09-01T12:52:28;1.90;;;0.90;;
35257;SDS011;21385;50.878;8.050;2022-09-01T13:05:17;2.78;;;1.20;;
35257;SDS011;21385;50.878;8.050;2022-09-01T13:07:45;1.00;;;0.98;;
35257;SDS011;21385;50.878;8.050;2022-09-01T13:10:11;1.33;;;1.00;;
35257;SDS011;21385;50.878;8.050;2022-09-01T13:12:40;0.98;;;0.90;;
35257;SDS011;21385;50.878;8.050;2022-09-01T13:15:07;0.93;;;0.90;;
35257;SDS011;21385;50.878;8.050;2022-09-01T13:17:34;2.22;;;1.05;;
35257;SDS011;21385;50.878;8.050;2022-09-01T13:19:59;4.95;;;0.93;;
35257;SDS011;21385;50.878;8.050;2022-09-01T13:22:25;1.30;;;1.00;;
35257;SDS011;21385;50.878;8.050;2022-09-01T13:24:51;2.80;;;1.02;;
35257;SDS011;21385;50.878;8.050;2022-09-01T13:27:16;1.25;;;1.10;;
35257;SDS011;21385;50.878;8.050;2022-09-01T13:29:42;4.60;;;1.13;;
35257;SDS011;21385;50.878;8.050;2022-09-01T13:32:08;2.53;;;1.00;;
35257;SDS011;21385;50.878;8.050;2022-09-01T13:34:34;2.85;;;1.30;;
35257;SDS011;21385;50.878;8.050;2022-09-01T13:37:00;1.38;;;1.10;;
35257;SDS011;21385;50.878;8.050;2022-09-01T13:39:25;1.58;;;1.10;;
35257;SDS011;21385;50.878;8.050;2022-09-01T13:41:51;1.42;;;1.00;;
35257;SDS011;21385;50.878;8.050;2022-09-01T13:44:17;3.42;;;1.23;;
35257;SDS011;21385;50.878;8.050;2022-09-01T13:46:43;1.55;;;0.90;;
35257;SDS011;21385;50.878;8.050;2022-09-01T13:49:09;2.03;;;1.10;;
35257;SDS011;21385;50.878;8.050;2022-09-01T13:51:35;1.63;;;1.10;;
35257;SDS011;21385;50.878;8.050;2022-09-01T13:54:01;2.90;;;1.10;;
35257;SDS011;21385;50.878;8.050;2022-09-01T13:56:27;2.40;;;1.00;;
35257;SDS011;21385;50.878;8.050;2022-09-01T13:58:53;1.90;;;1.00;;
35257;SDS011;21385;50.878;8.050;2022-09-01T14:01:18;1.40;;;1.30;;
35257;SDS011;21385;50.878;8.050;2022-09-01T14:03:45;1.38;;;0.98;;
35257;SDS011;21385;50.878;8.050;2022-09-01T14:06:12;3.13;;;1.00;;
35257;SDS011;21385;50.878;8.050;2022-09-01T14:08:38;3.03;;;1.00;;
35257;SDS011;21385;50.878;8.050;2022-09-01T14:11:04;1.20;;;0.80;;
35257;SDS011;21385;50.878;8.050;2022-09-01T14:13:29;2.67;;;0.90;;
35257;SDS011;21385;50.878;8.050;2022-09-01T14:15:56;2.00;;;1.10;;
35257;SDS011;21385;50.878;8.050;2022-09-01T14:18:22;1.77;;;1.10;;
35257;SDS011;21385;50.878;8.050;2022-09-01T14:20:49;4.10;;;1.20;;
35257;SDS011;21385;50.878;8.050;2022-09-01T14:23:16;3.72;;;1.13;;
35257;SDS011;21385;50.878;8.050;2022-09-01T14:25:44;1.05;;;0.82;;
35257;SDS011;21385;50.878;8.050;2022-09-01T14:28:12;1.75;;;0.90;;
35257;SDS011;21385;50.878;8.050;2022-09-01T14:30:38;0.80;;;0.75;;
35257;SDS011;21385;50.878;8.050;2022-09-01T14:33:06;1.48;;;0.85;;
35257;SDS011;21385;50.878;8.050;2022-09-01T14:35:32;2.60;;;1.00;;
35257;SDS011;21385;50.878;8.050;2022-09-01T14:37:58;2.53;;;0.90;;
35257;SDS011;21385;50.878;8.050;2022-09-01T14:40:26;3.03;;;0.95;;
35257;SDS011;21385;50.878;8.050;2022-09-01T14:42:53;1.13;;;1.00;;
35257;SDS011;21385;50.878;8.050;2022-09-01T14:45:19;1.73;;;1.00;;
35257;SDS011;21385;50.878;8.050;2022-09-01T14:47:47;1.30;;;1.17;;
35257;SDS011;21385;50.878;8.050;2022-09-01T14:50:15;2.40;;;1.20;;
35257;SDS011;21385;50.878;8.050;2022-09-01T14:52:41;1.83;;;1.05;;
35257;SDS011;21385;50.878;8.050;2022-09-01T14:55:07;1.48;;;1.00;;
35257;SDS011;21385;50.878;8.050;2022-09-01T14:57:34;1.92;;;1.02;;
35257;SDS011;21385;50.878;8.050;2022-09-01T15:00:00;1.30;;;0.80;;
35257;SDS011;21385;50.878;8.050;2022-09-01T15:02:26;1.73;;;0.98;;
35257;SDS011;21385;50.878;8.050;2022-09-01T15:04:53;2.25;;;1.02;;
35257;SDS011;21385;50.878;8.050;2022-09-01T15:07:19;3.45;;;0.93;;
35257;SDS011;21385;50.878;8.050;2022-09-01T15:09:44;1.40;;;0.80;;
35257;SDS011;21385;50.878;8.050;2022-09-01T15:12:10;2.63;;;1.00;;
35257;SDS011;21385;50.878;8.050;2022-09-01T15:14:36;0.70;;;0.70;;
35257;SDS011;21385;50.878;8.050;2022-09-01T15:17:02;2.42;;;0.90;;
35257;SDS011;21385;50.878;8.050;2022-09-01T15:19:29;3.40;;;0.93;;
35257;SDS011;21385;50.878;8.050;2022-09-01T15:21:54;1.02;;;0.90;;
35257;SDS011;21385;50.878;8.050;2022-09-01T15:24:20;3.28;;;0.80;;
35257;SDS011;21385;50.878;8.050;2022-09-01T15:26:47;2.83;;;1.20;;
35257;SDS011;21385;50.878;8.050;2022-09-01T15:29:13;3.28;;;1.00;;
35257;SDS011;21385;50.878;8.050;2022-09-01T15:31:39;2.13;;;1.10;;
35257;SDS011;21385;50.878;8.050;2022-09-01T15:34:06;3.38;;;1.10;;
35257;SDS011;21385;50.878;8.050;2022-09-01T15:36:33;0.98;;;0.88;;
35257;SDS011;21385;50.878;8.050;2022-09-01T15:39:00;1.20;;;0.80;;
35257;SDS011;21385;50.878;8.050;2022-09-01T15:41:27;1.45;;;1.10;;
35257;SDS011;21385;50.878;8.050;2022-09-01T15:43:55;1.05;;;0.90;;
35257;SDS011;21385;50.878;8.050;2022-09-01T15:46:22;1.55;;;1.00;;
35257;SDS011;21385;50.878;8.050;2022-09-01T15:48:55;1.63;;;1.38;;
35257;SDS011;21385;50.878;8.050;2022-09-01T15:51:36;2.05;;;1.00;;
35257;SDS011;21385;50.878;8.050;2022-09-01T15:54:10;1.48;;;0.90;;
35257;SDS011;21385;50.878;8.050;2022-09-01T15:56:37;3.17;;;1.13;;
35257;SDS011;21385;50.878;8.050;2022-09-01T15:59:04;1.63;;;0.90;;
35257;SDS011;21385;50.878;8.050;2022-09-01T16:01:32;7.47;;;1.08;;
35257;SDS011;21385;50.878;8.050;2022-09-01T16:04:00;3.00;;;0.85;;
35257;SDS011;21385;50.878;8.050;2022-09-01T16:06:26;1.50;;;0.80;;
35257;SDS011;21385;50.878;8.050;2022-09-01T16:08:52;1.58;;;1.02;;
35257;SDS011;21385;50.878;8.050;2022-09-01T16:11:19;1.70;;;0.93;;
35257;SDS011;21385;50.878;8.050;2022-09-01T16:13:50;5.47;;;1.20;;
35257;SDS011;21385;50.878;8.050;2022-09-01T16:19:05;9.13;;;1.10;;
35257;SDS011;21385;50.878;8.050;2022-09-01T16:24:13;2.30;;;1.00;;
35257;SDS011;21385;50.878;8.050;2022-09-01T16:26:39;4.18;;;1.10;;
35257;SDS011;21385;50.878;8.050;2022-09-01T16:29:14;0.90;;;0.80;;
35257;SDS011;21385;50.878;8.050;2022-09-01T16:32:01;1.33;;;0.80;;
35257;SDS011;21385;50.878;8.050;2022-09-01T16:34:27;1.42;;;1.00;;
35257;SDS011;21385;50.878;8.050;2022-09-01T16:45:05;3.20;;;1.30;;
35257;SDS011;21385;50.878;8.050;2022-09-01T16:50:35;8.07;;;1.38;;
35257;SDS011;21385;50.878;8.050;2022-09-01T16:53:10;2.67;;;1.17;;
35257;SDS011;21385;50.878;8.050;2022-09-01T17:09:40;2.40;;;1.02;;
35257;SDS011;21385;50.878;8.050;2022-09-01T17:14:56;2.05;;;0.82;;
35257;SDS011;21385;50.878;8.050;2022-09-01T17:18:31;2.97;;;0.93;;